South Attleboro, Massachusetts
Current Conditions -  °F | °C
As of 11:15 AM on Wednesday 28 Jan 2015 (Local Time) from KSFZ Reporting Station
Few Clouds Few Clouds  
Wind Chill:   Ceiling: Unl
Heat Index: 18°   Visibility: 9mi
Dew Point:   Wind: 9mph
Humidity: 53%   Direction: 330°NNW
Pressure: 29.92"   Gusts: NA
Location:  41.9304°N, 71.2954°W
Report Text: KSFZ 281615Z 33008KT 9SM FEW120 M08/M16 A2992 RMK AO1
Loading
Personal Weather Stations






























Interactive Weather Map New forecast layout! Learn more

10-Day Weather Forecast

Advertisements
Track Severe Weather on mobile